sensor_id;sensor_type;location;lat;lon;timestamp;pressure;altitude;pressure_sealevel;temperature;humidity
7407;BME280;3745;56.964;24.128;2023-04-27T00:01:10;100796.69;;;5.99;100.00
7407;BME280;3745;56.964;24.128;2023-04-27T00:03:36;100786.34;;;5.90;100.00
7407;BME280;3745;56.964;24.128;2023-04-27T00:06:02;100821.38;;;6.13;100.00
7407;BME280;3745;56.964;24.128;2023-04-27T00:08:28;100823.88;;;6.13;100.00
7407;BME280;3745;56.964;24.128;2023-04-27T00:10:53;100822.38;;;6.18;100.00
7407;BME280;3745;56.964;24.128;2023-04-27T00:13:20;100830.81;;;6.20;100.00
7407;BME280;3745;56.964;24.128;2023-04-27T00:15:45;100799.91;;;5.95;100.00
7407;BME280;3745;56.964;24.128;2023-04-27T00:18:11;100811.00;;;6.02;100.00
7407;BME280;3745;56.964;24.128;2023-04-27T00:20:37;100736.53;;;5.52;100.00
7407;BME280;3745;56.964;24.128;2023-04-27T00:23:03;100767.25;;;5.70;100.00
7407;BME280;3745;56.964;24.128;2023-04-27T00:25:28;100799.69;;;5.89;100.00
7407;BME280;3745;56.964;24.128;2023-04-27T00:27:54;100799.59;;;5.86;100.00
7407;BME280;3745;56.964;24.128;2023-04-27T00:30:19;100762.03;;;5.64;100.00
7407;BME280;3745;56.964;24.128;2023-04-27T00:32:45;100799.69;;;5.89;100.00
7407;BME280;3745;56.964;24.128;2023-04-27T00:35:11;100754.34;;;5.60;100.00
7407;BME280;3745;56.964;24.128;2023-04-27T00:37:36;100835.25;;;6.02;100.00
7407;BME280;3745;56.964;24.128;2023-04-27T00:40:04;100796.69;;;5.76;100.00
7407;BME280;3745;56.964;24.128;2023-04-27T00:42:32;100823.38;;;5.97;100.00
7407;BME280;3745;56.964;24.128;2023-04-27T00:44:58;100836.78;;;5.96;100.00
7407;BME280;3745;56.964;24.128;2023-04-27T00:47:24;100841.69;;;5.93;100.00
7407;BME280;3745;56.964;24.128;2023-04-27T00:49:50;100842.69;;;5.98;100.00
7407;BME280;3745;56.964;24.128;2023-04-27T00:52:17;100751.09;;;5.37;100.00
7407;BME280;3745;56.964;24.128;2023-04-27T00:54:43;100843.19;;;5.88;100.00
7407;BME280;3745;56.964;24.128;2023-04-27T00:57:09;100829.50;;;5.80;100.00
7407;BME280;3745;56.964;24.128;2023-04-27T00:59:35;100825.97;;;5.75;100.00
7407;BME280;3745;56.964;24.128;2023-04-27T01:02:01;100839.34;;;5.74;100.00
7407;BME280;3745;56.964;24.128;2023-04-27T01:04:27;100847.78;;;5.76;100.00
7407;BME280;3745;56.964;24.128;2023-04-27T01:06:54;100829.00;;;5.65;100.00
7407;BME280;3745;56.964;24.128;2023-04-27T01:09:19;100845.94;;;5.72;100.00
7407;BME280;3745;56.964;24.128;2023-04-27T01:11:46;100806.19;;;5.34;100.00
7407;BME280;3745;56.964;24.128;2023-04-27T01:14:11;100847.16;;;5.58;100.00
7407;BME280;3745;56.964;24.128;2023-04-27T01:16:37;100837.66;;;5.50;100.00
7407;BME280;3745;56.964;24.128;2023-04-27T01:19:03;100859.81;;;5.61;100.00
7407;BME280;3745;56.964;24.128;2023-04-27T01:21:29;100854.91;;;5.64;100.00
7407;BME280;3745;56.964;24.128;2023-04-27T01:23:55;100853.69;;;5.53;100.00
7407;BME280;3745;56.964;24.128;2023-04-27T01:26:21;100863.84;;;5.56;100.00
7407;BME280;3745;56.964;24.128;2023-04-27T01:28:47;100861.91;;;5.49;100.00
7407;BME280;3745;56.964;24.128;2023-04-27T01:31:13;100822.13;;;5.36;100.00
7407;BME280;3745;56.964;24.128;2023-04-27T01:33:39;100824.53;;;5.33;100.00
7407;BME280;3745;56.964;24.128;2023-04-27T01:36:06;100856.88;;;5.49;100.00
7407;BME280;3745;56.964;24.128;2023-04-27T01:38:32;100862.22;;;5.58;100.00
7407;BME280;3745;56.964;24.128;2023-04-27T01:40:58;100836.50;;;5.40;100.00
7407;BME280;3745;56.964;24.128;2023-04-27T01:43:30;100826.34;;;5.37;100.00
7407;BME280;3745;56.964;24.128;2023-04-27T01:46:16;100865.31;;;5.51;100.00
7407;BME280;3745;56.964;24.128;2023-04-27T01:48:42;100870.53;;;5.57;100.00
7407;BME280;3745;56.964;24.128;2023-04-27T01:51:08;100865.41;;;5.54;100.00
7407;BME280;3745;56.964;24.128;2023-04-27T01:53:33;100820.69;;;5.19;100.00
7407;BME280;3745;56.964;24.128;2023-04-27T01:55:59;100874.72;;;5.33;100.00
7407;BME280;3745;56.964;24.128;2023-04-27T01:58:25;100878.19;;;5.36;100.00
7407;BME280;3745;56.964;24.128;2023-04-27T02:00:51;100847.81;;;5.29;100.00
7407;BME280;3745;56.964;24.128;2023-04-27T02:03:16;100871.53;;;5.37;100.00
7407;BME280;3745;56.964;24.128;2023-04-27T02:05:42;100867.16;;;5.31;100.00
7407;BME280;3745;56.964;24.128;2023-04-27T02:08:08;100872.59;;;5.20;100.00
7407;BME280;3745;56.964;24.128;2023-04-27T02:10:34;100876.97;;;5.25;100.00
7407;BME280;3745;56.964;24.128;2023-04-27T02:13:00;100839.78;;;4.91;100.00
7407;BME280;3745;56.964;24.128;2023-04-27T02:15:26;100848.75;;;5.09;100.00
7407;BME280;3745;56.964;24.128;2023-04-27T02:17:52;100876.63;;;5.16;100.00
7407;BME280;3745;56.964;24.128;2023-04-27T02:20:17;100884.31;;;5.21;100.00
7407;BME280;3745;56.964;24.128;2023-04-27T02:22:43;100880.91;;;5.19;100.00
7407;BME280;3745;56.964;24.128;2023-04-27T02:25:12;100886.03;;;5.22;100.00
7407;BME280;3745;56.964;24.128;2023-04-27T02:27:39;100889.31;;;5.21;100.00
7407;BME280;3745;56.964;24.128;2023-04-27T02:30:07;100888.44;;;5.19;100.00
7407;BME280;3745;56.964;24.128;2023-04-27T02:32:33;100897.56;;;5.17;100.00
7407;BME280;3745;56.964;24.128;2023-04-27T02:34:59;100872.00;;;5.05;100.00
7407;BME280;3745;56.964;24.128;2023-04-27T02:37:24;100893.56;;;5.22;100.00
7407;BME280;3745;56.964;24.128;2023-04-27T02:39:51;100886.88;;;5.22;100.00
7407;BME280;3745;56.964;24.128;2023-04-27T02:42:16;100904.25;;;5.18;100.00
7407;BME280;3745;56.964;24.128;2023-04-27T02:44:42;100877.13;;;5.08;100.00
7407;BME280;3745;56.964;24.128;2023-04-27T02:47:08;100879.94;;;5.15;100.00
7407;BME280;3745;56.964;24.128;2023-04-27T02:49:34;100909.63;;;5.27;100.00
7407;BME280;3745;56.964;24.128;2023-04-27T02:52:00;100904.59;;;5.27;100.00
7407;BME280;3745;56.964;24.128;2023-04-27T02:54:25;100873.31;;;5.17;100.00
7407;BME280;3745;56.964;24.128;2023-04-27T02:56:51;100875.88;;;5.19;100.00
7407;BME280;3745;56.964;24.128;2023-04-27T02:59:17;100902.19;;;5.30;100.00
7407;BME280;3745;56.964;24.128;2023-04-27T03:01:43;100913.38;;;5.38;100.00
7407;BME280;3745;56.964;24.128;2023-04-27T03:04:08;100899.25;;;5.18;100.00
7407;BME280;3745;56.964;24.128;2023-04-27T03:06:34;100918.06;;;5.29;100.00
7407;BME280;3745;56.964;24.128;2023-04-27T03:09:00;100916.63;;;5.35;100.00
7407;BME280;3745;56.964;24.128;2023-04-27T03:11:27;100923.66;;;5.22;100.00
7407;BME280;3745;56.964;24.128;2023-04-27T03:13:53;100917.47;;;5.14;100.00
7407;BME280;3745;56.964;24.128;2023-04-27T03:16:19;100939.03;;;5.09;100.00
7407;BME280;3745;56.964;24.128;2023-04-27T03:18:44;100934.25;;;5.15;100.00
7407;BME280;3745;56.964;24.128;2023-04-27T03:21:11;100940.06;;;5.14;100.00
7407;BME280;3745;56.964;24.128;2023-04-27T03:23:37;100936.53;;;5.09;100.00
7407;BME280;3745;56.964;24.128;2023-04-27T03:26:07;100918.88;;;5.06;100.00
7407;BME280;3745;56.964;24.128;2023-04-27T03:28:33;100936.09;;;5.19;100.00
7407;BME280;3745;56.964;24.128;2023-04-27T03:30:59;100936.31;;;5.25;100.00
7407;BME280;3745;56.964;24.128;2023-04-27T03:33:25;100941.44;;;5.28;100.00
7407;BME280;3745;56.964;24.128;2023-04-27T03:35:56;100947.22;;;5.25;100.00
7407;BME280;3745;56.964;24.128;2023-04-27T03:38:22;100936.09;;;5.19;100.00
7407;BME280;3745;56.964;24.128;2023-04-27T03:40:48;100888.09;;;4.87;100.00
7407;BME280;3745;56.964;24.128;2023-04-27T03:43:13;100944.22;;;5.35;100.00
7407;BME280;3745;56.964;24.128;2023-04-27T03:45:39;100868.59;;;5.03;100.00
7407;BME280;3745;56.964;24.128;2023-04-27T03:48:05;100935.00;;;5.34;100.00
7407;BME280;3745;56.964;24.128;2023-04-27T03:50:31;100945.28;;;5.42;100.00
7407;BME280;3745;56.964;24.128;2023-04-27T03:52:56;100930.75;;;5.33;100.00
7407;BME280;3745;56.964;24.128;2023-04-27T03:55:22;100928.34;;;5.35;100.00
7407;BME280;3745;56.964;24.128;2023-04-27T03:57:48;100931.50;;;5.31;100.00
7407;BME280;3745;56.964;24.128;2023-04-27T04:00:14;100951.28;;;5.45;100.00
7407;BME280;3745;56.964;24.128;2023-04-27T04:02:40;100933.34;;;5.35;100.00
7407;BME280;3745;56.964;24.128;2023-04-27T04:05:06;100956.00;;;5.60;100.00
7407;BME280;3745;56.964;24.128;2023-04-27T04:07:33;100945.50;;;5.48;100.00
7407;BME280;3745;56.964;24.128;2023-04-27T04:09:59;100945.41;;;5.45;100.00
7407;BME280;3745;56.964;24.128;2023-04-27T04:12:25;100927.78;;;5.20;100.00
7407;BME280;3745;56.964;24.128;2023-04-27T04:14:50;100926.38;;;5.28;100.00
7407;BME280;3745;56.964;24.128;2023-04-27T04:17:16;100969.94;;;5.52;100.00
7407;BME280;3745;56.964;24.128;2023-04-27T04:19:42;100953.88;;;5.47;100.00
7407;BME280;3745;56.964;24.128;2023-04-27T04:22:07;100890.72;;;5.13;100.00
7407;BME280;3745;56.964;24.128;2023-04-27T04:24:33;100930.56;;;5.51;100.00
7407;BME280;3745;56.964;24.128;2023-04-27T04:26:58;100970.00;;;5.77;100.00
7407;BME280;3745;56.964;24.128;2023-04-27T04:29:24;100970.47;;;5.89;100.00
7407;BME280;3745;56.964;24.128;2023-04-27T04:31:50;100961.13;;;5.63;100.00
7407;BME280;3745;56.964;24.128;2023-04-27T04:34:16;100971.59;;;5.75;100.00
7407;BME280;3745;56.964;24.128;2023-04-27T04:36:42;100966.56;;;5.75;100.00
7407;BME280;3745;56.964;24.128;2023-04-27T04:39:07;100963.28;;;5.76;100.00
7407;BME280;3745;56.964;24.128;2023-04-27T04:41:33;100971.84;;;5.81;100.00
7407;BME280;3745;56.964;24.128;2023-04-27T04:43:58;100958.91;;;5.71;100.00
7407;BME280;3745;56.964;24.128;2023-04-27T04:46:24;100977.09;;;5.87;100.00
7407;BME280;3745;56.964;24.128;2023-04-27T04:48:50;100973.88;;;5.91;100.00
7407;BME280;3745;56.964;24.128;2023-04-27T04:51:16;100977.44;;;5.96;100.00
7407;BME280;3745;56.964;24.128;2023-04-27T04:53:42;100976.81;;;6.04;100.00
7407;BME280;3745;56.964;24.128;2023-04-27T04:56:11;100961.50;;;5.96;100.00
7407;BME280;3745;56.964;24.128;2023-04-27T04:58:37;100931.66;;;5.81;100.00
7407;BME280;3745;56.964;24.128;2023-04-27T05:01:04;100982.66;;;6.03;100.00
7407;BME280;3745;56.964;24.128;2023-04-27T05:03:30;100974.28;;;6.04;100.00
7407;BME280;3745;56.964;24.128;2023-04-27T05:05:56;100979.53;;;6.10;100.00
7407;BME280;3745;56.964;24.128;2023-04-27T05:08:21;100981.34;;;6.14;100.00
7407;BME280;3745;56.964;24.128;2023-04-27T05:10:51;100971.19;;;6.11;100.00
7407;BME280;3745;56.964;24.128;2023-04-27T05:13:17;100976.13;;;6.08;100.00
7407;BME280;3745;56.964;24.128;2023-04-27T05:15:42;100979.53;;;6.10;100.00
7407;BME280;3745;56.964;24.128;2023-04-27T05:18:08;100982.13;;;6.11;100.00
7407;BME280;3745;56.964;24.128;2023-04-27T05:20:34;100986.69;;;6.23;100.00
7407;BME280;3745;56.964;24.128;2023-04-27T05:23:00;100988.50;;;6.27;100.00
7407;BME280;3745;56.964;24.128;2023-04-27T05:25:31;100997.34;;;6.41;100.00
7407;BME280;3745;56.964;24.128;2023-04-27T05:27:57;100932.31;;;5.99;100.00
7407;BME280;3745;56.964;24.128;2023-04-27T05:30:23;100985.47;;;6.37;100.00
7407;BME280;3745;56.964;24.128;2023-04-27T05:32:49;100975.41;;;6.37;100.00
7407;BME280;3745;56.964;24.128;2023-04-27T05:35:15;100980.78;;;6.46;100.00
7407;BME280;3745;56.964;24.128;2023-04-27T05:37:40;101005.69;;;6.65;100.00
7407;BME280;3745;56.964;24.128;2023-04-27T05:40:06;100972.63;;;6.53;100.00
7407;BME280;3745;56.964;24.128;2023-04-27T05:42:34;101004.81;;;6.90;100.00
7407;BME280;3745;56.964;24.128;2023-04-27T05:45:00;101001.47;;;7.18;100.00
7407;BME280;3745;56.964;24.128;2023-04-27T05:47:27;100984.03;;;7.24;100.00
7407;BME280;3745;56.964;24.128;2023-04-27T05:49:52;100992.56;;;7.57;100.00
7407;BME280;3745;56.964;24.128;2023-04-27T05:52:18;100991.38;;;7.74;100.00
7407;BME280;3745;56.964;24.128;2023-04-27T05:54:48;100952.69;;;7.72;100.00
7407;BME280;3745;56.964;24.128;2023-04-27T05:57:14;100989.72;;;8.06;100.00
7407;BME280;3745;56.964;24.128;2023-04-27T05:59:41;100961.91;;;8.01;100.00
7407;BME280;3745;56.964;24.128;2023-04-27T06:02:07;100987.72;;;8.26;100.00
7407;BME280;3745;56.964;24.128;2023-04-27T06:04:33;100986.69;;;8.17;100.00
7407;BME280;3745;56.964;24.128;2023-04-27T06:06:59;100993.56;;;8.25;100.00
7407;BME280;3745;56.964;24.128;2023-04-27T06:09:24;100994.91;;;8.42;100.00
7407;BME280;3745;56.964;24.128;2023-04-27T06:11:50;100981.50;;;8.43;100.00
7407;BME280;3745;56.964;24.128;2023-04-27T06:14:16;101006.94;;;8.52;100.00
7407;BME280;3745;56.964;24.128;2023-04-27T06:16:42;100974.66;;;8.39;100.00
7407;BME280;3745;56.964;24.128;2023-04-27T06:19:08;100999.06;;;8.40;100.00
7407;BME280;3745;56.964;24.128;2023-04-27T06:21:34;101002.78;;;8.54;100.00
7407;BME280;3745;56.964;24.128;2023-04-27T06:24:00;101005.16;;;8.48;100.00
7407;BME280;3745;56.964;24.128;2023-04-27T06:26:26;100990.66;;;8.39;100.00
7407;BME280;3745;56.964;24.128;2023-04-27T06:28:53;101012.63;;;8.45;100.00
7407;BME280;3745;56.964;24.128;2023-04-27T06:31:19;101018.50;;;8.44;100.00
7407;BME280;3745;56.964;24.128;2023-04-27T06:33:44;100982.53;;;8.19;100.00
7407;BME280;3745;56.964;24.128;2023-04-27T06:36:10;101008.97;;;8.34;100.00
7407;BME280;3745;56.964;24.128;2023-04-27T06:38:35;100995.47;;;8.30;100.00
7407;BME280;3745;56.964;24.128;2023-04-27T06:41:01;101020.59;;;8.60;100.00
7407;BME280;3745;56.964;24.128;2023-04-27T06:43:28;101020.66;;;8.63;100.00
7407;BME280;3745;56.964;24.128;2023-04-27T06:45:54;101024.06;;;8.65;100.00
7407;BME280;3745;56.964;24.128;2023-04-27T06:48:20;101023.28;;;8.35;100.00
7407;BME280;3745;56.964;24.128;2023-04-27T06:50:46;101022.94;;;8.23;100.00
7407;BME280;3745;56.964;24.128;2023-04-27T06:53:11;101026.63;;;8.34;100.00
7407;BME280;3745;56.964;24.128;2023-04-27T06:55:37;101028.25;;;8.32;100.00
7407;BME280;3745;56.964;24.128;2023-04-27T06:58:03;101031.84;;;8.40;100.00
7407;BME280;3745;56.964;24.128;2023-04-27T07:00:30;101043.94;;;8.53;100.00
7407;BME280;3745;56.964;24.128;2023-04-27T07:02:55;101030.53;;;8.54;100.00
7407;BME280;3745;56.964;24.128;2023-04-27T07:05:21;100992.41;;;8.43;100.00
7407;BME280;3745;56.964;24.128;2023-04-27T07:07:47;101029.19;;;8.68;100.00
7407;BME280;3745;56.964;24.128;2023-04-27T07:10:12;101046.47;;;8.87;100.00
7407;BME280;3745;56.964;24.128;2023-04-27T07:12:39;101056.22;;;9.08;100.00
7407;BME280;3745;56.964;24.128;2023-04-27T07:15:05;101032.91;;;9.18;100.00
7407;BME280;3745;56.964;24.128;2023-04-27T07:17:34;101051.25;;;9.47;100.00
7407;BME280;3745;56.964;24.128;2023-04-27T07:20:00;101059.00;;;9.56;100.00
7407;BME280;3745;56.964;24.128;2023-04-27T07:22:28;101039.03;;;9.27;100.00
7407;BME280;3745;56.964;24.128;2023-04-27T07:24:53;101062.69;;;9.33;100.00
7407;BME280;3745;56.964;24.128;2023-04-27T07:27:19;101007.97;;;8.94;100.00
7407;BME280;3745;56.964;24.128;2023-04-27T07:29:45;101037.22;;;9.22;100.00
7407;BME280;3745;56.964;24.128;2023-04-27T07:32:11;101071.59;;;9.53;100.00
7407;BME280;3745;56.964;24.128;2023-04-27T07:34:37;101006.72;;;9.14;100.00
7407;BME280;3745;56.964;24.128;2023-04-27T07:37:02;101068.22;;;9.54;100.00
7407;BME280;3745;56.964;24.128;2023-04-27T07:39:29;101013.63;;;9.21;100.00
7407;BME280;3745;56.964;24.128;2023-04-27T07:41:55;101061.59;;;9.59;100.00
7407;BME280;3745;56.964;24.128;2023-04-27T07:44:22;101070.31;;;9.73;100.00
7407;BME280;3745;56.964;24.128;2023-04-27T07:46:48;101060.59;;;9.91;100.00
7407;BME280;3745;56.964;24.128;2023-04-27T07:49:16;101075.88;;;9.97;100.00
7407;BME280;3745;56.964;24.128;2023-04-27T07:51:42;101081.91;;;10.04;100.00
7407;BME280;3745;56.964;24.128;2023-04-27T07:54:08;101077.28;;;9.83;100.00
7407;BME280;3745;56.964;24.128;2023-04-27T07:56:33;101089.53;;;10.05;100.00
7407;BME280;3745;56.964;24.128;2023-04-27T07:58:59;101084.88;;;10.23;100.00
7407;BME280;3745;56.964;24.128;2023-04-27T08:01:24;101089.47;;;10.43;100.00
7407;BME280;3745;56.964;24.128;2023-04-27T08:03:50;101083.44;;;10.38;100.00
7407;BME280;3745;56.964;24.128;2023-04-27T08:06:17;101092.00;;;10.43;100.00
7407;BME280;3745;56.964;24.128;2023-04-27T08:08:43;101090.81;;;10.72;100.00
7407;BME280;3745;56.964;24.128;2023-04-27T08:11:09;101100.41;;;10.42;100.00
7407;BME280;3745;56.964;24.128;2023-04-27T08:13:35;101108.06;;;10.46;100.00
7407;BME280;3745;56.964;24.128;2023-04-27T08:16:01;101083.50;;;10.41;100.00
7407;BME280;3745;56.964;24.128;2023-04-27T08:18:27;101091.03;;;10.36;99.69
7407;BME280;3745;56.964;24.128;2023-04-27T08:20:53;101107.56;;;10.64;98.52
7407;BME280;3745;56.964;24.128;2023-04-27T08:23:19;101089.00;;;10.65;96.74
7407;BME280;3745;56.964;24.128;2023-04-27T08:25:45;101083.84;;;10.59;96.93
7407;BME280;3745;56.964;24.128;2023-04-27T08:28:11;101096.00;;;10.78;100.00
7407;BME280;3745;56.964;24.128;2023-04-27T08:30:37;101102.81;;;10.82;97.52
7407;BME280;3745;56.964;24.128;2023-04-27T08:33:03;101098.09;;;10.54;96.27
7407;BME280;3745;56.964;24.128;2023-04-27T08:35:29;101121.25;;;10.30;92.35
7407;BME280;3745;56.964;24.128;2023-04-27T08:37:54;101098.06;;;10.10;95.87
7407;BME280;3745;56.964;24.128;2023-04-27T08:40:20;101097.75;;;9.95;98.81
7407;BME280;3745;56.964;24.128;2023-04-27T08:42:54;101103.22;;;10.13;100.00
7407;BME280;3745;56.964;24.128;2023-04-27T08:45:21;101127.03;;;10.24;100.00
7407;BME280;3745;56.964;24.128;2023-04-27T08:47:48;101120.16;;;10.17;100.00
7407;BME280;3745;56.964;24.128;2023-04-27T08:50:13;101130.75;;;10.42;100.00
7407;BME280;3745;56.964;24.128;2023-04-27T08:52:39;101134.22;;;10.47;100.00
7407;BME280;3745;56.964;24.128;2023-04-27T08:55:06;101107.25;;;10.47;100.00
7407;BME280;3745;56.964;24.128;2023-04-27T08:57:32;101059.25;;;10.08;100.00
7407;BME280;3745;56.964;24.128;2023-04-27T08:59:58;101098.63;;;10.38;100.00
7407;BME280;3745;56.964;24.128;2023-04-27T09:02:25;101109.09;;;10.56;100.00
7407;BME280;3745;56.964;24.128;2023-04-27T09:04:54;101129.38;;;10.59;100.00
7407;BME280;3745;56.964;24.128;2023-04-27T09:07:20;101103.50;;;10.28;100.00
7407;BME280;3745;56.964;24.128;2023-04-27T09:09:46;101134.44;;;10.59;100.00
7407;BME280;3745;56.964;24.128;2023-04-27T09:12:20;101106.78;;;10.68;100.00
7407;BME280;3745;56.964;24.128;2023-04-27T09:15:02;101106.00;;;10.72;100.00
7407;BME280;3745;56.964;24.128;2023-04-27T09:17:29;101125.09;;;11.01;100.00
7407;BME280;3745;56.964;24.128;2023-04-27T09:20:09;101115.13;;;11.10;100.00
7407;BME280;3745;56.964;24.128;2023-04-27T09:22:52;101134.09;;;11.36;98.61
7407;BME280;3745;56.964;24.128;2023-04-27T09:25:23;101124.00;;;11.39;97.58
7407;BME280;3745;56.964;24.128;2023-04-27T09:27:48;101119.75;;;11.37;97.14
7407;BME280;3745;56.964;24.128;2023-04-27T09:30:14;101141.06;;;11.50;94.19
7407;BME280;3745;56.964;24.128;2023-04-27T09:33:00;101128.66;;;11.12;91.25
7407;BME280;3745;56.964;24.128;2023-04-27T09:35:30;101118.81;;;10.81;92.71
7407;BME280;3745;56.964;24.128;2023-04-27T09:37:57;101111.22;;;10.81;97.08
7407;BME280;3745;56.964;24.128;2023-04-27T09:40:27;101108.34;;;11.09;93.67
7407;BME280;3745;56.964;24.128;2023-04-27T09:42:58;101110.00;;;11.07;88.93
7407;BME280;3745;56.964;24.128;2023-04-27T09:45:28;101120.09;;;11.04;90.82
7407;BME280;3745;56.964;24.128;2023-04-27T09:47:54;101133.88;;;11.21;92.35
7407;BME280;3745;56.964;24.128;2023-04-27T09:50:20;101128.75;;;11.18;90.05
7407;BME280;3745;56.964;24.128;2023-04-27T09:52:48;101089.88;;;11.16;91.28
7407;BME280;3745;56.964;24.128;2023-04-27T09:55:27;101118.63;;;11.74;96.49
7407;BME280;3745;56.964;24.128;2023-04-27T10:01:12;101133.34;;;11.99;83.19
7407;BME280;3745;56.964;24.128;2023-04-27T10:03:55;101037.59;;;11.21;76.53
7407;BME280;3745;56.964;24.128;2023-04-27T10:09:24;101132.91;;;11.69;81.85
7407;BME280;3745;56.964;24.128;2023-04-27T10:11:51;101117.41;;;11.51;84.31
7407;BME280;3745;56.964;24.128;2023-04-27T10:14:22;101115.94;;;11.65;81.33
7407;BME280;3745;56.964;24.128;2023-04-27T10:16:53;101132.31;;;11.85;83.05
7407;BME280;3745;56.964;24.128;2023-04-27T10:19:22;101100.84;;;11.71;79.41
7407;BME280;3745;56.964;24.128;2023-04-27T10:21:55;101131.78;;;12.10;80.18
7407;BME280;3745;56.964;24.128;2023-04-27T10:24:40;101125.47;;;12.47;76.35
7407;BME280;3745;56.964;24.128;2023-04-27T10:27:09;101123.63;;;12.35;75.05
7407;BME280;3745;56.964;24.128;2023-04-27T10:32:09;101122.13;;;12.52;75.87
7407;BME280;3745;56.964;24.128;2023-04-27T10:34:36;101120.03;;;12.18;74.85
7407;BME280;3745;56.964;24.128;2023-04-27T10:37:09;101087.34;;;11.72;72.32
7407;BME280;3745;56.964;24.128;2023-04-27T10:39:40;101101.88;;;11.83;74.71
7407;BME280;3745;56.964;24.128;2023-04-27T10:42:06;101137.00;;;12.22;71.69
7407;BME280;3745;56.964;24.128;2023-04-27T10:44:34;101133.22;;;12.62;71.13
7407;BME280;3745;56.964;24.128;2023-04-27T10:47:11;101090.47;;;12.20;67.10
7407;BME280;3745;56.964;24.128;2023-04-27T10:49:37;101136.00;;;12.85;68.25
7407;BME280;3745;56.964;24.128;2023-04-27T10:52:03;101127.44;;;12.77;62.43
7407;BME280;3745;56.964;24.128;2023-04-27T10:54:30;101115.59;;;12.76;62.77
7407;BME280;3745;56.964;24.128;2023-04-27T10:57:09;101136.06;;;12.91;61.33
7407;BME280;3745;56.964;24.128;2023-04-27T10:59:55;101138.91;;;12.38;60.87
7407;BME280;3745;56.964;24.128;2023-04-27T11:02:26;101130.03;;;12.06;62.01
7407;BME280;3745;56.964;24.128;2023-04-27T11:04:52;101134.56;;;11.67;66.71
7407;BME280;3745;56.964;24.128;2023-04-27T11:07:25;101125.91;;;11.53;67.56
7407;BME280;3745;56.964;24.128;2023-04-27T11:09:52;101149.59;;;11.55;67.75
7407;BME280;3745;56.964;24.128;2023-04-27T11:12:18;101156.63;;;11.71;66.62
7407;BME280;3745;56.964;24.128;2023-04-27T11:14:44;101117.19;;;11.35;66.95
7407;BME280;3745;56.964;24.128;2023-04-27T11:17:09;101160.63;;;11.58;66.27
7407;BME280;3745;56.964;24.128;2023-04-27T11:19:45;101147.78;;;11.48;67.00
7407;BME280;3745;56.964;24.128;2023-04-27T11:22:15;101144.09;;;11.27;64.79
7407;BME280;3745;56.964;24.128;2023-04-27T11:24:50;101147.59;;;11.35;62.85
7407;BME280;3745;56.964;24.128;2023-04-27T11:27:16;101157.81;;;11.41;64.28
7407;BME280;3745;56.964;24.128;2023-04-27T11:29:42;101153.09;;;11.63;64.67
7407;BME280;3745;56.964;24.128;2023-04-27T11:32:16;101161.94;;;11.89;65.27
7407;BME280;3745;56.964;24.128;2023-04-27T11:34:51;101139.81;;;11.79;64.87
7407;BME280;3745;56.964;24.128;2023-04-27T11:37:21;101171.41;;;12.01;65.07
7407;BME280;3745;56.964;24.128;2023-04-27T11:39:51;101177.03;;;11.80;65.92
7407;BME280;3745;56.964;24.128;2023-04-27T11:42:22;100946.16;;;10.48;64.44
7407;BME280;3745;56.964;24.128;2023-04-27T11:47:19;101163.13;;;11.57;65.19
7407;BME280;3745;56.964;24.128;2023-04-27T11:49:49;101177.78;;;11.71;65.61
7407;BME280;3745;56.964;24.128;2023-04-27T11:52:16;101168.53;;;11.75;65.36
7407;BME280;3745;56.964;24.128;2023-04-27T11:54:46;101139.50;;;11.58;66.00
7407;BME280;3745;56.964;24.128;2023-04-27T11:57:12;101151.81;;;11.89;66.24
7407;BME280;3745;56.964;24.128;2023-04-27T11:59:38;101171.69;;;12.22;65.11
7407;BME280;3745;56.964;24.128;2023-04-27T12:02:03;101177.75;;;12.34;63.21
7407;BME280;3745;56.964;24.128;2023-04-27T12:04:29;101181.09;;;12.27;62.28
7407;BME280;3745;56.964;24.128;2023-04-27T12:06:55;101167.38;;;12.16;63.56
7407;BME280;3745;56.964;24.128;2023-04-27T12:09:20;101134.25;;;12.03;61.98
7407;BME280;3745;56.964;24.128;2023-04-27T12:11:46;101180.19;;;12.25;62.64
7407;BME280;3745;56.964;24.128;2023-04-27T12:14:12;101170.72;;;12.12;60.90
7407;BME280;3745;56.964;24.128;2023-04-27T12:16:37;101177.63;;;12.22;59.55
7407;BME280;3745;56.964;24.128;2023-04-27T12:19:06;101171.00;;;12.33;58.75
7407;BME280;3745;56.964;24.128;2023-04-27T12:21:32;101136.34;;;11.71;59.07
7407;BME280;3745;56.964;24.128;2023-04-27T12:23:58;101179.66;;;11.86;60.84
7407;BME280;3745;56.964;24.128;2023-04-27T12:26:24;101187.31;;;11.89;59.56
7407;BME280;3745;56.964;24.128;2023-04-27T12:28:50;101186.31;;;11.79;59.72
7407;BME280;3745;56.964;24.128;2023-04-27T12:31:18;101137.78;;;11.57;58.87
7407;BME280;3745;56.964;24.128;2023-04-27T12:33:48;101079.63;;;11.07;60.44
7407;BME280;3745;56.964;24.128;2023-04-27T12:36:16;101161.63;;;11.68;60.61
7407;BME280;3745;56.964;24.128;2023-04-27T12:38:41;101177.16;;;11.89;61.30
7407;BME280;3745;56.964;24.128;2023-04-27T12:41:07;101168.63;;;11.81;63.42
7407;BME280;3745;56.964;24.128;2023-04-27T12:43:34;101183.97;;;11.90;62.60
7407;BME280;3745;56.964;24.128;2023-04-27T12:46:02;101167.50;;;11.65;63.43
7407;BME280;3745;56.964;24.128;2023-04-27T12:48:27;101183.78;;;11.79;63.35
7407;BME280;3745;56.964;24.128;2023-04-27T12:50:53;101183.16;;;11.94;64.66
7407;BME280;3745;56.964;24.128;2023-04-27T12:53:18;101189.44;;;12.20;63.54
7407;BME280;3745;56.964;24.128;2023-04-27T12:55:46;101175.66;;;12.03;60.75
7407;BME280;3745;56.964;24.128;2023-04-27T12:58:11;101140.88;;;11.37;61.59
7407;BME280;3745;56.964;24.128;2023-04-27T13:00:37;101167.28;;;11.50;61.09
7407;BME280;3745;56.964;24.128;2023-04-27T13:03:06;101180.84;;;11.55;61.15
7407;BME280;3745;56.964;24.128;2023-04-27T13:05:32;101110.53;;;10.88;62.43
7407;BME280;3745;56.964;24.128;2023-04-27T13:07:57;101200.19;;;11.49;62.00
7407;BME280;3745;56.964;24.128;2023-04-27T13:10:23;101167.63;;;11.20;62.75